Opelika, AL

6:22 AM CST on December 22, 2014 (GMT -0600)
Lagrange-Callaway | Change Station
CLOSE
Current Station
Airport
Location: La Grange,
Elevation: 692 ft
Nearby Weather Stations

Elev 692 ft 33.01 °N, 85.07 °W | Updated 27 minutes ago

Overcast
Overcast
50 °F
Feels Like 50 °F
N
0
Wind Variable Wind from North

Today
High -- | Low -- °F
--% Chance of Precip.
Yesterday
High -- | Low -- °F
Precip. -- in
6:40 AM 4:40 PM
New Moon, 0% visible
Pressure 30.02 in
Visibility 3.0 miles
Clouds Overcast 400 ft
Dew Point 50 °F
Humidity 98%
Rainfall 0.00 in
Snow Depth Not available.
UV 0 out of 12
Pollen 1.40 out of 12
Air Quality Not available.
Flu Activity Not available.
METAR KLGC 221155Z AUTO 00000KT 3SM BR OVC004 10/10 A3002 RMK AO2 T01030100 10110 20103

More Conditions Fewer Conditions

Pressure 30.02 in
Visibility 3.0 miles
Clouds Overcast 400 ft
Dew Point 50 °F
Humidity 98%
Rainfall 0.00 in
Snow Depth Not available.
UV 0 out of 12
Pollen 1.40 out of 12
Air Quality Not available.
Flu Activity Not available.
METAR KLGC 221155Z AUTO 00000KT 3SM BR OVC004 10/10 A3002 RMK AO2 T01030100 10110 20103

More Conditions Fewer Conditions

10-Day Weather Forecast

Almanac

Astronomy

Dec. 22, 2014 Rise Set
Actual Time
Civil Twilight
Nautical Twilight
Astronomical Twilight
Moon
Length of Visible Light
Length of Day
Tomorrow will be .
, % of the Moon is Illuminated

Today's Extremes

State Highs State Lows

Community

WunderPhotos

Upload Photos

1,779,595 photos uploaded!

WunderBlogs® & News

Nearby

Air Quality

  Air Quality AQ Index Pollutant
Not available.

Snow Depth

Station Depth Elevation

Earthquake Activity

City Distance Mag. Time & Date
Minimum magnitude displayed is 2.5.

Coastal Water Temperatures

Place Temperature

Nearby Weather Stations